Wetterdaten: Woche 04.01.16 - 10.01.16 (KW1)
Datum Zeit Auen-Temp. Temp gefhlt Luftfeuchte Luftdruck Regen Wind Richtung Taupunkt Windben
04.01.2016 00:00 -0,6 C -0,8 C 93 % 999,7 hPa 0,0 mm 0,1 km/h (0 Bft) N -1,6 C 0,0 km/h (0 Bft)
04.01.2016 01:00 -0,8 C -0,9 C 89 % 998,5 hPa 0,0 mm 0,4 km/h (0 Bft) W -2,4 C 0,6 km/h (0 Bft)
04.01.2016 02:00 -0,6 C -0,7 C 92 % 998,1 hPa 0,0 mm 0,5 km/h (0 Bft) N -1,7 C 1,6 km/h (1 Bft)
04.01.2016 03:00 -0,2 C -0,3 C 93 % 997,7 hPa 0,0 mm 0,5 km/h (0 Bft) S -1,1 C 0,6 km/h (0 Bft)
04.01.2016 04:00 0,1 C -0,0 C 93 % 997,3 hPa 0,0 mm 1,0 km/h (0 Bft) S -0,8 C 1,7 km/h (1 Bft)
04.01.2016 05:00 0,2 C 0,0 C 93 % 997,2 hPa 0,0 mm 0,2 km/h (0 Bft) W-SW -0,8 C 0,5 km/h (0 Bft)
04.01.2016 06:00 0,5 C 0,4 C 95 % 997,1 hPa 0,0 mm 1,5 km/h (1 Bft) S -0,2 C 3,3 km/h (1 Bft)
04.01.2016 07:00 0,6 C 0,4 C 96 % 997,0 hPa 0,0 mm 2,9 km/h (1 Bft) W 0,0 C 4,1 km/h (1 Bft)
04.01.2016 08:00 1,1 C 0,9 C 96 % 997,0 hPa 0,7 mm 3,7 km/h (1 Bft) W 0,6 C 4,7 km/h (1 Bft)
04.01.2016 09:00 2,0 C 1,6 C 96 % 997,3 hPa 0,0 mm 6,0 km/h (2 Bft) W-SW 1,4 C 9,5 km/h (2 Bft)
04.01.2016 10:00 3,0 C 2,3 C 93 % 997,7 hPa 0,0 mm 10,2 km/h (2 Bft) W 1,9 C 14,4 km/h (3 Bft)
04.01.2016 11:00 2,7 C 2,1 C 91 % 997,9 hPa 0,7 mm 9,6 km/h (2 Bft) W 1,4 C 14,7 km/h (3 Bft)
04.01.2016 12:00 2,8 C 2,2 C 88 % 998,2 hPa 0,0 mm 10,6 km/h (2 Bft) W 1,0 C 12,9 km/h (3 Bft)
04.01.2016 13:00 3,0 C 2,4 C 85 % 998,3 hPa 0,0 mm 11,3 km/h (2 Bft) W-SW 0,8 C 13,7 km/h (3 Bft)
04.01.2016 14:00 2,4 C 1,9 C 85 % 998,6 hPa 0,7 mm 10,7 km/h (2 Bft) W-SW 0,1 C 14,7 km/h (3 Bft)
04.01.2016 15:00 1,7 C 0,8 C 88 % 998,5 hPa 0,0 mm 10,6 km/h (2 Bft) W-SW -0,2 C 12,5 km/h (3 Bft)
04.01.2016 16:00 1,2 C 0,5 C 89 % 998,7 hPa 0,0 mm 6,7 km/h (2 Bft) W-SW -0,5 C 8,5 km/h (2 Bft)
04.01.2016 17:00 1,1 C 0,4 C 89 % 998,8 hPa 0,0 mm 5,9 km/h (2 Bft) W -0,5 C 6,3 km/h (2 Bft)
04.01.2016 18:00 0,9 C 0,2 C 89 % 999,2 hPa 0,0 mm 6,1 km/h (2 Bft) W-SW -0,7 C 9,0 km/h (2 Bft)
04.01.2016 19:00 0,4 C -0,2 C 89 % 999,3 hPa 0,0 mm 3,4 km/h (1 Bft) W-SW -1,1 C 4,6 km/h (1 Bft)
04.01.2016 20:00 1,1 C 0,2 C 87 % 999,4 hPa 0,0 mm 8,6 km/h (2 Bft) W-SW -0,8 C 10,9 km/h (2 Bft)
04.01.2016 21:00 1,3 C 0,6 C 83 % 999,7 hPa 0,0 mm 8,1 km/h (2 Bft) W-SW -1,3 C 9,3 km/h (2 Bft)
04.01.2016 22:00 0,9 C 0,3 C 83 % 999,8 hPa 0,0 mm 6,7 km/h (2 Bft) W-SW -1,6 C 9,2 km/h (2 Bft)
04.01.2016 23:00 1,4 C 0,7 C 80 % 999,8 hPa 0,0 mm 8,3 km/h (2 Bft) W-SW -1,6 C 10,1 km/h (2 Bft)
05.01.2016 00:00 1,0 C 0,3 C 78 % 999,6 hPa 0,0 mm 6,7 km/h (2 Bft) SW -2,5 C 7,2 km/h (2 Bft)
05.01.2016 01:00 -1,2 C -1,7 C 83 % 999,3 hPa 0,0 mm 0,1 km/h (0 Bft) N -3,8 C 0,0 km/h (0 Bft)
05.01.2016 02:00 -1,8 C -2,1 C 86 % 999,1 hPa 0,0 mm 0,0 km/h (0 Bft) N -3,8 C 0,0 km/h (0 Bft)
05.01.2016 03:00 -1,6 C -2,0 C 88 % 998,9 hPa 0,0 mm 0,0 km/h (0 Bft) N -3,4 C 0,0 km/h (0 Bft)
05.01.2016 04:00 -1,1 C -1,5 C 89 % 998,2 hPa 0,0 mm 0,6 km/h (0 Bft) O-NO -2,8 C 0,5 km/h (0 Bft)
05.01.2016 05:00 -0,7 C -1,1 C 87 % 998,0 hPa 0,0 mm 1,6 km/h (1 Bft) O-SO -2,6 C 2,0 km/h (1 Bft)
05.01.2016 06:00 -0,3 C -0,6 C 88 % 998,3 hPa 0,0 mm 2,3 km/h (1 Bft) W-SW -2,0 C 3,7 km/h (1 Bft)
05.01.2016 07:00 0,4 C 0,2 C 87 % 999,1 hPa 0,0 mm 2,9 km/h (1 Bft) SW -1,5 C 3,8 km/h (1 Bft)
05.01.2016 08:00 -0,0 C -0,3 C 88 % 999,4 hPa 0,0 mm 0,1 km/h (0 Bft) N -1,8 C 0,0 km/h (0 Bft)
05.01.2016 09:00 0,1 C 0,1 C 86 % 1000,1 hPa 0,0 mm 0,4 km/h (0 Bft) N -1,9 C 1,1 km/h (1 Bft)
05.01.2016 10:00 1,5 C 1,5 C 87 % 1000,8 hPa 0,0 mm 4,1 km/h (1 Bft) S -0,4 C 6,4 km/h (2 Bft)
05.01.2016 11:00 2,4 C 2,9 C 86 % 1001,0 hPa 0,0 mm 2,5 km/h (1 Bft) W 0,3 C 1,9 km/h (1 Bft)
05.01.2016 12:00 3,0 C 4,0 C 83 % 1000,8 hPa 0,0 mm 2,1 km/h (1 Bft) SW 0,4 C 2,8 km/h (1 Bft)
05.01.2016 13:00 3,9 C 5,3 C 80 % 1000,8 hPa 0,0 mm 1,5 km/h (1 Bft) W-SW 0,8 C 2,9 km/h (1 Bft)
05.01.2016 14:00 4,3 C 7,5 C 77 % 1001,0 hPa 0,0 mm 3,5 km/h (1 Bft) W 0,5 C 5,3 km/h (1 Bft)
05.01.2016 15:00 4,0 C 4,7 C 74 % 1001,2 hPa 0,0 mm 4,1 km/h (1 Bft) W-SW -0,2 C 6,8 km/h (2 Bft)
05.01.2016 16:00 2,7 C 2,4 C 76 % 1001,4 hPa 0,0 mm 4,9 km/h (1 Bft) W-SW -1,1 C 5,6 km/h (1 Bft)
05.01.2016 17:00 1,3 C 0,9 C 81 % 1001,5 hPa 0,0 mm 0,3 km/h (0 Bft) O-SO -1,6 C 0,2 km/h (0 Bft)
05.01.2016 18:00 0,2 C -0,3 C 84 % 1001,8 hPa 0,0 mm 0,1 km/h (0 Bft) N -2,2 C 0,3 km/h (0 Bft)
05.01.2016 19:00 -0,1 C -0,4 C 85 % 1001,8 hPa 0,0 mm 0,1 km/h (0 Bft) N -2,3 C 0,2 km/h (0 Bft)
05.01.2016 20:00 0,7 C 0,5 C 87 % 1002,0 hPa 0,0 mm 0,2 km/h (0 Bft) N -1,3 C 0,3 km/h (0 Bft)
05.01.2016 21:00 -0,1 C -0,5 C 87 % 1002,1 hPa 0,0 mm 0,5 km/h (0 Bft) NO -2,0 C 0,7 km/h (0 Bft)
05.01.2016 22:00 0,4 C 0,0 C 87 % 1002,4 hPa 0,0 mm 0,2 km/h (0 Bft) SO -1,5 C 0,6 km/h (0 Bft)
05.01.2016 23:00 0,5 C 0,1 C 86 % 1002,5 hPa 0,0 mm 1,3 km/h (1 Bft) S -1,6 C 3,1 km/h (1 Bft)
06.01.2016 00:00 0,8 C 0,5 C 84 % 1002,4 hPa 0,0 mm 2,1 km/h (1 Bft) S -1,7 C 3,8 km/h (1 Bft)
06.01.2016 01:00 0,5 C 0,2 C 83 % 1002,4 hPa 0,0 mm 0,1 km/h (0 Bft) N -2,0 C 0,0 km/h (0 Bft)
06.01.2016 02:00 -0,1 C -0,5 C 84 % 1002,5 hPa 0,0 mm 0,3 km/h (0 Bft) O-SO -2,5 C 0,0 km/h (0 Bft)
06.01.2016 03:00 -0,4 C -0,7 C 85 % 1002,6 hPa 0,0 mm 0,6 km/h (0 Bft) SO -2,7 C 0,9 km/h (0 Bft)
06.01.2016 04:00 -0,1 C -0,3 C 84 % 1002,4 hPa 0,0 mm 0,8 km/h (0 Bft) N-NO -2,4 C 0,7 km/h (0 Bft)
06.01.2016 05:00 -0,8 C -1,1 C 86 % 1002,5 hPa 0,0 mm 0,1 km/h (0 Bft) N -2,9 C 0,3 km/h (0 Bft)
06.01.2016 06:00 -1,0 C -1,4 C 87 % 1002,7 hPa 0,0 mm 0,1 km/h (0 Bft) N -2,9 C 0,3 km/h (0 Bft)
06.01.2016 07:00 -1,1 C -1,4 C 86 % 1002,9 hPa 0,0 mm 0,1 km/h (0 Bft) N -3,1 C 0,0 km/h (0 Bft)
06.01.2016 08:00 -0,6 C -0,8 C 87 % 1003,2 hPa 0,0 mm 0,7 km/h (0 Bft) SO -2,5 C 0,6 km/h (0 Bft)
06.01.2016 09:00 -0,1 C -0,2 C 86 % 1003,4 hPa 0,0 mm 0,1 km/h (0 Bft) N -2,1 C 0,0 km/h (0 Bft)
06.01.2016 10:00 0,5 C 0,9 C 85 % 1003,8 hPa 0,0 mm 0,1 km/h (0 Bft) N -1,7 C 0,2 km/h (0 Bft)
06.01.2016 11:00 1,6 C 2,1 C 83 % 1003,6 hPa 0,0 mm 0,1 km/h (0 Bft) N -0,9 C 0,3 km/h (0 Bft)
06.01.2016 12:00 4,1 C 6,0 C 76 % 1003,3 hPa 0,0 mm 2,0 km/h (1 Bft) O-SO 0,2 C 1,8 km/h (1 Bft)
06.01.2016 13:00 4,5 C 5,7 C 70 % 1003,1 hPa 0,0 mm 1,4 km/h (1 Bft) O-NO -0,5 C 1,4 km/h (1 Bft)
06.01.2016 14:00 4,3 C 5,1 C 70 % 1003,2 hPa 0,0 mm 0,5 km/h (0 Bft) N -0,7 C 1,0 km/h (0 Bft)
06.01.2016 15:00 4,1 C 4,8 C 70 % 1003,5 hPa 0,0 mm 0,1 km/h (0 Bft) W -0,8 C 0,0 km/h (0 Bft)
06.01.2016 16:00 2,2 C 1,9 C 75 % 1003,5 hPa 0,7 mm 4,2 km/h (1 Bft) W-SW -1,8 C 7,0 km/h (2 Bft)
06.01.2016 17:00 1,0 C 0,7 C 83 % 1001,9 hPa 0,0 mm 0,6 km/h (0 Bft) SW -1,6 C 1,2 km/h (1 Bft)
06.01.2016 18:00 0,6 C 0,4 C 85 % 1002,3 hPa 0,0 mm 1,3 km/h (1 Bft) W-SW -1,6 C 1,9 km/h (1 Bft)
06.01.2016 19:00 0,4 C 0,2 C 87 % 1002,5 hPa 0,0 mm 0,8 km/h (0 Bft) W-SW -1,6 C 1,2 km/h (1 Bft)
06.01.2016 20:00 0,4 C 0,2 C 88 % 1002,8 hPa 0,0 mm 0,4 km/h (0 Bft) W-SW -1,4 C 1,0 km/h (0 Bft)
06.01.2016 21:00 0,6 C 0,4 C 89 % 1003,0 hPa 0,0 mm 2,9 km/h (1 Bft) W-SW -1,0 C 4,1 km/h (1 Bft)
06.01.2016 22:00 0,7 C 0,4 C 90 % 1003,0 hPa 0,0 mm 3,7 km/h (1 Bft) W-SW -0,8 C 5,3 km/h (1 Bft)
06.01.2016 23:00 0,7 C 0,5 C 90 % 1003,1 hPa 0,7 mm 2,8 km/h (1 Bft) SW -0,7 C 2,7 km/h (1 Bft)
07.01.2016 00:00 0,6 C 0,4 C 91 % 1003,1 hPa 0,0 mm 0,7 km/h (0 Bft) S -0,7 C 1,4 km/h (1 Bft)
07.01.2016 01:00 0,6 C 0,3 C 92 % 1003,2 hPa 0,0 mm 0,1 km/h (0 Bft) N -0,6 C 0,0 km/h (0 Bft)
07.01.2016 02:00 0,3 C 0,1 C 92 % 1003,2 hPa 0,0 mm 0,0 km/h (0 Bft) N -0,9 C 0,0 km/h (0 Bft)
07.01.2016 03:00 0,2 C 0,0 C 91 % 1003,3 hPa 0,0 mm 0,0 km/h (0 Bft) N -1,0 C 0,0 km/h (0 Bft)
07.01.2016 04:00 0,5 C 0,2 C 93 % 1003,4 hPa 0,0 mm 1,4 km/h (1 Bft) S -0,6 C 1,3 km/h (1 Bft)
07.01.2016 05:00 0,2 C -0,1 C 92 % 1003,0 hPa 0,0 mm 0,1 km/h (0 Bft) N -0,9 C 0,0 km/h (0 Bft)
07.01.2016 06:00 -0,1 C -0,4 C 93 % 1002,6 hPa 0,0 mm 0,1 km/h (0 Bft) N -1,1 C 0,0 km/h (0 Bft)
07.01.2016 07:00 -0,5 C -0,8 C 93 % 1002,5 hPa 0,0 mm 0,0 km/h (0 Bft) N -1,6 C 0,0 km/h (0 Bft)
07.01.2016 08:00 -1,2 C -1,5 C 93 % 1002,1 hPa 0,0 mm 0,0 km/h (0 Bft) N -2,2 C 0,0 km/h (0 Bft)
07.01.2016 09:00 -1,3 C -1,6 C 92 % 1001,7 hPa 0,0 mm 0,0 km/h (0 Bft) N -2,4 C 0,0 km/h (0 Bft)
07.01.2016 10:00 -0,6 C -0,8 C 92 % 1001,0 hPa 0,0 mm 0,1 km/h (0 Bft) N -1,7 C 0,0 km/h (0 Bft)
07.01.2016 11:00 0,0 C -0,1 C 90 % 1000,0 hPa 0,0 mm 0,2 km/h (0 Bft) N -1,4 C 0,2 km/h (0 Bft)
07.01.2016 12:00 1,8 C 2,5 C 89 % 998,4 hPa 0,7 mm 1,4 km/h (1 Bft) O-NO 0,2 C 2,2 km/h (1 Bft)
07.01.2016 13:00 2,7 C 3,6 C 88 % 996,8 hPa 0,0 mm 1,4 km/h (1 Bft) O-NO 1,0 C 2,0 km/h (1 Bft)
07.01.2016 14:00 2,3 C 2,6 C 88 % 996,7 hPa 0,0 mm 2,0 km/h (1 Bft) SW 0,5 C 3,6 km/h (1 Bft)
07.01.2016 15:00 2,0 C 1,9 C 89 % 998,1 hPa 0,0 mm 3,0 km/h (1 Bft) W-SW 0,4 C 4,4 km/h (1 Bft)
07.01.2016 16:00 1,1 C 0,9 C 90 % 998,4 hPa 0,0 mm 0,0 km/h (0 Bft) N -0,3 C 0,0 km/h (0 Bft)
07.01.2016 17:00 0,4 C 0,2 C 91 % 998,7 hPa 0,0 mm 0,5 km/h (0 Bft) W-SW -0,9 C 0,5 km/h (0 Bft)
07.01.2016 18:00 1,4 C 0,9 C 92 % 999,6 hPa 0,0 mm 6,4 km/h (2 Bft) W-SW 0,3 C 12,0 km/h (2 Bft)
07.01.2016 19:00 3,3 C 2,7 C 93 % 1000,7 hPa 0,0 mm 11,1 km/h (2 Bft) W 2,3 C 16,0 km/h (3 Bft)
07.01.2016 20:00 3,6 C 3,0 C 92 % 1001,5 hPa 0,0 mm 10,7 km/h (2 Bft) W 2,4 C 15,5 km/h (3 Bft)
07.01.2016 21:00 3,7 C 3,2 C 89 % 1001,8 hPa 0,0 mm 7,2 km/h (2 Bft) W-SW 2,1 C 8,7 km/h (2 Bft)
07.01.2016 22:00 3,8 C 2,9 C 88 % 1002,7 hPa 0,0 mm 18,0 km/h (3 Bft) W-NW 1,9 C 27,2 km/h (4 Bft)
07.01.2016 23:00 2,8 C 2,0 C 82 % 1003,9 hPa 0,0 mm 17,0 km/h (3 Bft) W 0,1 C 19,3 km/h (3 Bft)
08.01.2016 00:00 2,4 C 1,6 C 83 % 1004,7 hPa 0,0 mm 13,4 km/h (3 Bft) W-NW -0,2 C 16,6 km/h (3 Bft)
08.01.2016 01:00 2,7 C 1,9 C 85 % 1005,0 hPa 0,0 mm 11,5 km/h (2 Bft) W 0,4 C 15,4 km/h (3 Bft)
08.01.2016 02:00 2,8 C 2,1 C 85 % 1005,9 hPa 0,0 mm 10,9 km/h (2 Bft) W-NW 0,5 C 14,2 km/h (3 Bft)
08.01.2016 03:00 2,8 C 2,0 C 80 % 1006,4 hPa 0,0 mm 12,4 km/h (3 Bft) W -0,3 C 13,6 km/h (3 Bft)
08.01.2016 04:00 2,4 C 1,5 C 79 % 1006,5 hPa 0,0 mm 10,1 km/h (2 Bft) W -0,9 C 11,9 km/h (2 Bft)
08.01.2016 05:00 2,1 C 1,4 C 79 % 1007,3 hPa 0,0 mm 7,6 km/h (2 Bft) W-SW -1,2 C 9,8 km/h (2 Bft)
08.01.2016 06:00 1,7 C 1,2 C 80 % 1007,7 hPa 0,0 mm 5,5 km/h (1 Bft) W-SW -1,4 C 7,3 km/h (2 Bft)
08.01.2016 07:00 1,6 C 1,2 C 78 % 1007,9 hPa 0,0 mm 2,7 km/h (1 Bft) SW -1,8 C 3,8 km/h (1 Bft)
08.01.2016 08:00 0,6 C 0,2 C 76 % 1008,6 hPa 0,0 mm 2,9 km/h (1 Bft) SW -3,1 C 2,6 km/h (1 Bft)
08.01.2016 09:00 0,3 C -0,0 C 79 % 1008,8 hPa 0,0 mm 0,9 km/h (0 Bft) SO -2,9 C 1,2 km/h (1 Bft)
08.01.2016 10:00 0,6 C 0,6 C 81 % 1008,8 hPa 0,0 mm 0,5 km/h (0 Bft) SO -2,4 C 0,0 km/h (0 Bft)
08.01.2016 11:00 2,1 C 2,8 C 82 % 1008,3 hPa 0,7 mm 0,3 km/h (0 Bft) S -0,7 C 0,0 km/h (0 Bft)
08.01.2016 12:00 4,4 C 6,0 C 77 % 1007,9 hPa 0,0 mm 0,5 km/h (0 Bft) NO 0,8 C 0,6 km/h (0 Bft)
08.01.2016 13:00 4,7 C 5,7 C 75 % 1007,4 hPa 0,0 mm 0,8 km/h (0 Bft) O-NO 0,6 C 1,3 km/h (1 Bft)
08.01.2016 14:00 4,6 C 5,3 C 74 % 1006,7 hPa 0,0 mm 0,3 km/h (0 Bft) O-NO 0,4 C 0,2 km/h (0 Bft)
08.01.2016 15:00 4,2 C 4,4 C 76 % 1006,4 hPa 0,0 mm 0,6 km/h (0 Bft) SO 0,3 C 1,2 km/h (1 Bft)
08.01.2016 16:00 3,2 C 3,0 C 80 % 1006,5 hPa 0,0 mm 0,0 km/h (0 Bft) N 0,1 C 0,2 km/h (0 Bft)
08.01.2016 17:00 2,4 C 2,2 C 86 % 1006,6 hPa 0,7 mm 0,0 km/h (0 Bft) N 0,3 C 0,0 km/h (0 Bft)
08.01.2016 18:00 1,9 C 1,7 C 88 % 1006,4 hPa 0,0 mm 0,2 km/h (0 Bft) N 0,2 C 0,7 km/h (0 Bft)
08.01.2016 19:00 1,7 C 1,5 C 89 % 1005,8 hPa 0,7 mm 0,0 km/h (0 Bft) N 0,1 C 0,0 km/h (0 Bft)
08.01.2016 20:00 1,6 C 1,5 C 90 % 1005,3 hPa 0,7 mm 0,0 km/h (0 Bft) N 0,1 C 0,0 km/h (0 Bft)
08.01.2016 21:00 1,6 C 1,5 C 91 % 1004,9 hPa 0,7 mm 0,0 km/h (0 Bft) N 0,3 C 0,0 km/h (0 Bft)
08.01.2016 22:00 1,8 C 1,7 C 91 % 1005,2 hPa 1,4 mm 0,0 km/h (0 Bft) N 0,5 C 0,0 km/h (0 Bft)
08.01.2016 23:00 2,2 C 2,1 C 91 % 1005,2 hPa 1,4 mm 0,2 km/h (0 Bft) N 0,8 C 0,4 km/h (0 Bft)
09.01.2016 00:00 2,4 C 2,4 C 93 % 1005,3 hPa 1,4 mm 0,0 km/h (0 Bft) N 1,4 C 0,2 km/h (0 Bft)
09.01.2016 01:00 3,0 C 2,9 C 92 % 1005,3 hPa 0,7 mm 0,6 km/h (0 Bft) SO 1,8 C 0,6 km/h (0 Bft)
09.01.2016 02:00 3,2 C 3,2 C 91 % 1005,0 hPa 1,4 mm 0,3 km/h (0 Bft) N 1,9 C 0,9 km/h (0 Bft)
09.01.2016 03:00 3,7 C 3,7 C 92 % 1004,8 hPa 0,0 mm 1,3 km/h (1 Bft) W-SW 2,5 C 2,5 km/h (1 Bft)
09.01.2016 04:00 4,2 C 4,2 C 94 % 1004,3 hPa 0,7 mm 3,6 km/h (1 Bft) W 3,3 C 6,0 km/h (2 Bft)
09.01.2016 05:00 4,3 C 4,3 C 94 % 1004,3 hPa 0,0 mm 1,4 km/h (1 Bft) O-NO 3,5 C 1,2 km/h (1 Bft)
09.01.2016 06:00 4,1 C 4,1 C 94 % 1004,9 hPa 0,0 mm 0,0 km/h (0 Bft) N 3,2 C 0,3 km/h (0 Bft)
09.01.2016 07:00 3,6 C 3,6 C 94 % 1005,0 hPa 0,7 mm 0,1 km/h (0 Bft) N 2,8 C 0,3 km/h (0 Bft)
09.01.2016 08:00 3,6 C 3,7 C 93 % 1005,1 hPa 0,7 mm 0,1 km/h (0 Bft) N 2,6 C 0,0 km/h (0 Bft)
09.01.2016 09:00 4,3 C 4,6 C 93 % 1005,2 hPa 0,0 mm 0,0 km/h (0 Bft) N 3,2 C 0,0 km/h (0 Bft)
09.01.2016 10:00 4,8 C 5,1 C 93 % 1005,2 hPa 0,7 mm 0,4 km/h (0 Bft) O 3,8 C 0,0 km/h (0 Bft)
09.01.2016 11:00 5,1 C 5,5 C 90 % 1005,0 hPa 0,7 mm 0,0 km/h (0 Bft) N 3,7 C 0,0 km/h (0 Bft)
09.01.2016 12:00 5,5 C 5,6 C 92 % 1004,5 hPa 0,7 mm 0,6 km/h (0 Bft) W-SW 4,2 C 0,8 km/h (0 Bft)
09.01.2016 13:00 5,6 C 5,7 C 92 % 1004,6 hPa 0,7 mm 2,3 km/h (1 Bft) W-SW 4,5 C 4,4 km/h (1 Bft)
09.01.2016 14:00 5,6 C 5,6 C 94 % 1004,8 hPa 0,7 mm 1,9 km/h (1 Bft) W 4,7 C 1,9 km/h (1 Bft)
09.01.2016 15:00 5,3 C 5,4 C 94 % 1004,7 hPa 0,0 mm 0,0 km/h (0 Bft) N 4,4 C 0,0 km/h (0 Bft)
09.01.2016 16:00 4,9 C 4,9 C 94 % 1004,6 hPa 0,0 mm 0,0 km/h (0 Bft) N 4,0 C 0,0 km/h (0 Bft)
09.01.2016 17:00 4,5 C 4,5 C 94 % 1004,6 hPa 0,0 mm 0,0 km/h (0 Bft) N 3,6 C 0,0 km/h (0 Bft)
09.01.2016 18:00 4,3 C 4,3 C 94 % 1004,1 hPa 0,0 mm 0,2 km/h (0 Bft) N 3,4 C 0,5 km/h (0 Bft)
09.01.2016 19:00 4,3 C 4,2 C 95 % 1004,4 hPa 0,0 mm 1,5 km/h (1 Bft) O-SO 3,5 C 2,6 km/h (1 Bft)
09.01.2016 20:00 3,9 C 3,8 C 95 % 1004,2 hPa 0,0 mm 0,0 km/h (0 Bft) N 3,1 C 0,0 km/h (0 Bft)
09.01.2016 21:00 3,3 C 3,2 C 95 % 1003,7 hPa 0,0 mm 0,0 km/h (0 Bft) N 2,6 C 0,0 km/h (0 Bft)
09.01.2016 22:00 3,2 C 3,0 C 95 % 1003,3 hPa 0,0 mm 0,0 km/h (0 Bft) N 2,4 C 0,0 km/h (0 Bft)
09.01.2016 23:00 2,6 C 2,5 C 95 % 1003,2 hPa 0,0 mm 0,7 km/h (0 Bft) SW 1,9 C 1,5 km/h (1 Bft)
10.01.2016 00:00 2,6 C 2,3 C 96 % 1003,2 hPa 0,0 mm 2,0 km/h (1 Bft) W-SW 2,0 C 1,8 km/h (1 Bft)
10.01.2016 01:00 1,9 C 1,7 C 96 % 1002,6 hPa 0,0 mm 0,0 km/h (0 Bft) N 1,3 C 0,3 km/h (0 Bft)
10.01.2016 02:00 0,9 C 0,5 C 96 % 1002,4 hPa 0,0 mm 0,0 km/h (0 Bft) N 0,3 C 0,0 km/h (0 Bft)
10.01.2016 03:00 0,7 C 0,5 C 96 % 1002,0 hPa 0,0 mm 0,1 km/h (0 Bft) N 0,1 C 0,3 km/h (0 Bft)
10.01.2016 04:00 1,3 C 1,1 C 96 % 1001,7 hPa 0,0 mm 0,0 km/h (0 Bft) N 0,6 C 0,0 km/h (0 Bft)
10.01.2016 05:00 0,8 C 0,5 C 96 % 1001,4 hPa 0,0 mm 0,0 km/h (0 Bft) N 0,1 C 0,0 km/h (0 Bft)
10.01.2016 06:00 0,7 C 0,5 C 96 % 1001,0 hPa 0,0 mm 0,1 km/h (0 Bft) N 0,1 C 0,0 km/h (0 Bft)
10.01.2016 07:00 1,1 C 0,9 C 96 % 1001,0 hPa 0,0 mm 0,1 km/h (0 Bft) N 0,5 C 0,0 km/h (0 Bft)
10.01.2016 08:00 1,5 C 1,3 C 95 % 1000,6 hPa 0,0 mm 1,1 km/h (1 Bft) O-NO 0,8 C 2,1 km/h (1 Bft)
10.01.2016 09:00 1,8 C 1,8 C 96 % 1001,1 hPa 0,0 mm 1,2 km/h (1 Bft) O-NO 1,2 C 3,5 km/h (1 Bft)
10.01.2016 10:00 3,0 C 2,9 C 96 % 1002,4 hPa 0,0 mm 6,4 km/h (2 Bft) W 2,4 C 10,3 km/h (2 Bft)
10.01.2016 11:00 4,0 C 3,6 C 95 % 1003,0 hPa 0,0 mm 9,8 km/h (2 Bft) W-SW 3,3 C 13,7 km/h (3 Bft)
10.01.2016 12:00 4,6 C 4,8 C 90 % 1002,5 hPa 0,0 mm 6,9 km/h (2 Bft) SW 3,1 C 10,2 km/h (2 Bft)
10.01.2016 13:00 5,3 C 6,3 C 86 % 1001,8 hPa 0,0 mm 3,7 km/h (1 Bft) W-SW 3,1 C 4,2 km/h (1 Bft)
10.01.2016 14:00 5,6 C 6,6 C 86 % 1001,1 hPa 0,0 mm 1,4 km/h (1 Bft) NO 3,4 C 2,9 km/h (1 Bft)
10.01.2016 15:00 5,1 C 5,4 C 86 % 1001,2 hPa 0,0 mm 2,3 km/h (1 Bft) O-NO 3,0 C 1,9 km/h (1 Bft)
10.01.2016 16:00 4,1 C 4,1 C 88 % 1000,9 hPa 0,0 mm 0,5 km/h (0 Bft) O-NO 2,3 C 0,9 km/h (0 Bft)
10.01.2016 17:00 3,5 C 3,4 C 90 % 1000,3 hPa 0,0 mm 0,3 km/h (0 Bft) N 1,9 C 0,9 km/h (0 Bft)
10.01.2016 18:00 3,6 C 3,5 C 90 % 999,4 hPa 0,0 mm 0,6 km/h (0 Bft) SO 2,1 C 0,7 km/h (0 Bft)
10.01.2016 19:00 3,5 C 3,4 C 90 % 1000,3 hPa 1,4 mm 3,0 km/h (1 Bft) W-SW 2,0 C 3,0 km/h (1 Bft)
10.01.2016 20:00 3,3 C 3,2 C 92 % 1000,8 hPa 0,7 mm 0,9 km/h (0 Bft) O-SO 2,1 C 0,7 km/h (0 Bft)
10.01.2016 21:00 2,9 C 2,8 C 93 % 1000,6 hPa 0,0 mm 1,1 km/h (1 Bft) W-SW 1,8 C 1,4 km/h (1 Bft)
10.01.2016 22:00 3,0 C 2,8 C 93 % 1000,8 hPa 0,7 mm 3,0 km/h (1 Bft) W-SW 2,0 C 6,2 km/h (2 Bft)
10.01.2016 23:00 3,6 C 3,1 C 92 % 1000,8 hPa 0,7 mm 7,6 km/h (2 Bft) W-SW 2,5 C 11,8 km/h (2 Bft)
Min-Datum _ 05.01.16 05.01.16 06.01.16 07.01.16 - 10.01.16 - 05.01.16 10.01.16
_ Min-Zeit 02:25 02:25 14:30 14:00 - 21:00 - 01:00 21:00
Minimum _ -2,1 C -2,4 C 69 % 996,4 hPa - 0,0 km/h (0 Bft) - -4,6 C 0,0 km/h (0 Bft)
Max-Datum _ 10.01.16 05.01.16 10.01.16 08.01.16 10.01.16 07.01.16 - 09.01.16 07.01.16
_ Max-Zeit 14:45 14:15 11:00 10:00 19:20 22:40 - 13:05 22:40
Maximum _ 5,9 C 9,2 C 96 % 1009,0 hPa 1,4 mm 23,8 km/h
W-NW (4 Bft)
- 4,8 C 52,6 km/h
W-NW (7 Bft)
Durchschnitt _ 1,9 C 1,8 C 88 % 1002,2 hPa #22,7 mm 2,6 km/h (1 Bft) W-SW 0,1 C 3,5 km/h (1 Bft)